Archival Weather

Snohomish County (Paine Fld)

Everett, Washington (KPAE)

Report from: Friday, November 17, 2023 11:53 AM PST
Current time: Monday, June 24, 2024 3:44 AM PDT

Current weather – Weather history – Daily summaries
Weather forecast

Temperature8.9°C (48.0°F)
Wind chill7.9°C (46.2°F)
Dew point-0.6°C (30.9°F)
Winds 4 kts (2.1 m/s, 4.6 mph) North (360°)
Visibility10 mi. (16.1 km)
Clouds Sky clear
Altimeter30.04 in.Hg (1017 mB)
Relative humidity51 %
Density altitude-795 ft. (-242 m)
Sea-level pressure101.8 kPa (1018 mB, 30.06 in.Hg)
Remarks Automated weather observing station with precipitation discriminator
Flight conditions Visual Meteorological Conditions
Raw dataKPAE 171953Z 36004KT 10SM CLR 09/M01 A3004 RMK AO2 SLP178 T00891006
An error has occurred. This application may no longer respond until reloaded. Reload 🗙